createdAt,value
2023-03-06T00:00:50.863Z,3.24
2023-03-06T00:03:18.059Z,3.22
2023-03-06T00:05:45.243Z,3.21
2023-03-06T00:08:12.325Z,3.21
2023-03-06T00:10:40.387Z,3.20
2023-03-06T00:13:13.526Z,3.17
2023-03-06T00:15:41.231Z,3.15
2023-03-06T00:18:08.967Z,3.11
2023-03-06T00:20:37.902Z,3.06
2023-03-06T00:23:04.988Z,3.00
2023-03-06T00:25:31.957Z,2.95
2023-03-06T00:27:58.885Z,2.93
2023-03-06T00:30:28.170Z,2.89
2023-03-06T00:32:55.176Z,2.89
2023-03-06T00:35:23.910Z,2.91
2023-03-06T00:37:51.019Z,2.94
2023-03-06T00:40:20.903Z,2.98
2023-03-06T00:42:48.634Z,2.99
2023-03-06T00:45:15.988Z,2.93
2023-03-06T00:47:43.490Z,2.86
2023-03-06T00:50:11.384Z,2.79
2023-03-06T00:52:38.466Z,2.75
2023-03-06T00:55:06.251Z,2.70
2023-03-06T00:57:33.303Z,2.66
2023-03-06T01:00:00.269Z,2.65
2023-03-06T01:02:27.418Z,2.64
2023-03-06T01:04:55.098Z,2.67
2023-03-06T01:07:22.434Z,2.67
2023-03-06T01:09:50.707Z,2.64
2023-03-06T01:12:17.939Z,2.59
2023-03-06T01:14:47.964Z,2.59
2023-03-06T01:17:15.974Z,2.52
2023-03-06T01:19:43.510Z,2.51
2023-03-06T01:22:13.969Z,2.51
2023-03-06T01:24:40.933Z,2.46
2023-03-06T01:27:07.910Z,2.44
2023-03-06T01:29:36.032Z,2.41
2023-03-06T01:32:03.246Z,2.43
2023-03-06T01:34:30.314Z,2.43
2023-03-06T01:36:57.451Z,2.42
2023-03-06T01:39:24.996Z,2.41
2023-03-06T01:41:52.385Z,2.38
2023-03-06T01:44:19.416Z,2.39
2023-03-06T01:46:47.452Z,2.37
2023-03-06T01:49:35.550Z,2.41
2023-03-06T01:52:08.881Z,2.41
2023-03-06T01:55:09.924Z,2.40
2023-03-06T01:57:44.534Z,2.37
2023-03-06T02:00:17.689Z,2.33
2023-03-06T02:02:53.106Z,2.29
2023-03-06T02:05:20.628Z,2.25
2023-03-06T02:07:50.129Z,2.22
2023-03-06T02:10:20.157Z,2.18
2023-03-06T02:12:51.108Z,2.15
2023-03-06T02:15:23.213Z,2.12
2023-03-06T02:17:53.058Z,2.11
2023-03-06T02:20:33.988Z,2.10
2023-03-06T02:23:27.099Z,2.07
2023-03-06T02:25:57.226Z,2.06
2023-03-06T02:28:25.372Z,2.04
2023-03-06T02:30:55.246Z,2.03
2023-03-06T02:33:28.049Z,2.03
2023-03-06T02:36:04.121Z,2.00
2023-03-06T02:38:52.427Z,1.99
2023-03-06T02:41:20.722Z,1.92
2023-03-06T02:43:52.205Z,1.88
2023-03-06T02:46:19.323Z,1.86
2023-03-06T02:48:46.753Z,1.87
2023-03-06T02:51:13.767Z,1.83
2023-03-06T02:53:40.915Z,1.85
2023-03-06T02:56:08.492Z,1.84
2023-03-06T02:58:35.830Z,1.82
2023-03-06T03:01:02.905Z,1.76
2023-03-06T03:03:30.783Z,1.72
2023-03-06T03:06:00.249Z,1.69
2023-03-06T03:08:32.880Z,1.66
2023-03-06T03:11:03.849Z,1.62
2023-03-06T03:13:38.257Z,1.60
2023-03-06T03:16:11.716Z,1.59
2023-03-06T03:18:38.806Z,1.54
2023-03-06T03:21:12.438Z,1.52
2023-03-06T03:23:39.865Z,1.50
2023-03-06T03:26:10.764Z,1.48
2023-03-06T03:28:40.629Z,1.45
2023-03-06T03:31:10.497Z,1.45
2023-03-06T03:33:38.087Z,1.42
2023-03-06T03:36:07.208Z,1.40
2023-03-06T03:38:36.846Z,1.42
2023-03-06T03:41:04.725Z,1.42
2023-03-06T03:43:32.573Z,1.41
2023-03-06T03:46:00.457Z,1.41
2023-03-06T03:48:28.553Z,1.43
2023-03-06T03:51:05.996Z,1.44
2023-03-06T03:53:35.255Z,1.44
2023-03-06T03:56:03.802Z,1.44
2023-03-06T03:58:32.746Z,1.42
2023-03-06T04:01:00.129Z,1.40
2023-03-06T04:03:27.841Z,1.39
2023-03-06T04:05:57.841Z,1.39
2023-03-06T04:08:26.870Z,1.36
2023-03-06T04:10:54.581Z,1.36
2023-03-06T04:13:24.222Z,1.33
2023-03-06T04:15:53.933Z,1.34
2023-03-06T04:18:24.033Z,1.35
2023-03-06T04:20:53.562Z,1.35
2023-03-06T04:23:21.139Z,1.35
2023-03-06T04:25:48.530Z,1.34
2023-03-06T04:28:16.867Z,1.35
2023-03-06T04:30:44.756Z,1.33
2023-03-06T04:33:12.611Z,1.33
2023-03-06T04:35:39.661Z,1.35
2023-03-06T04:38:12.525Z,1.39
2023-03-06T04:40:39.897Z,1.39
2023-03-06T04:43:07.053Z,1.43
2023-03-06T04:45:34.887Z,1.46
2023-03-06T04:48:02.035Z,1.48
2023-03-06T04:50:32.546Z,1.52
2023-03-06T04:53:01.613Z,1.51
2023-03-06T04:55:29.148Z,1.51
2023-03-06T04:57:57.689Z,1.53
2023-03-06T05:00:33.150Z,1.53
2023-03-06T05:03:02.339Z,1.53
2023-03-06T05:05:30.175Z,1.52
2023-03-06T05:07:57.596Z,1.51
2023-03-06T05:10:24.623Z,1.50
2023-03-06T05:12:51.590Z,1.51
2023-03-06T05:15:18.888Z,1.53
2023-03-06T05:17:47.519Z,1.56
2023-03-06T05:20:16.354Z,1.54
2023-03-06T05:22:44.111Z,1.54
2023-03-06T05:25:11.753Z,1.54
2023-03-06T05:27:39.423Z,1.57
2023-03-06T05:30:09.861Z,1.59
2023-03-06T05:32:36.880Z,1.61
2023-03-06T05:35:05.945Z,1.63
2023-03-06T05:37:33.680Z,1.64
2023-03-06T05:40:00.760Z,1.65
2023-03-06T05:42:31.019Z,1.65
2023-03-06T05:44:57.958Z,1.70
2023-03-06T05:47:25.108Z,1.80
2023-03-06T05:49:52.067Z,1.83
2023-03-06T05:52:19.091Z,1.89
2023-03-06T05:54:51.347Z,1.92
2023-03-06T05:57:23.952Z,1.90
2023-03-06T05:59:51.571Z,1.93
2023-03-06T06:02:19.499Z,2.00
2023-03-06T06:04:47.050Z,2.06
2023-03-06T06:07:16.862Z,2.12
2023-03-06T06:09:45.581Z,2.20
2023-03-06T06:12:13.608Z,2.30
2023-03-06T06:14:42.971Z,2.46
2023-03-06T06:17:10.378Z,2.55
2023-03-06T06:19:37.397Z,2.60
2023-03-06T06:22:05.297Z,2.69
2023-03-06T06:24:32.785Z,2.73
2023-03-06T06:27:03.609Z,2.68
2023-03-06T06:29:32.103Z,2.57
2023-03-06T06:32:00.269Z,2.47
2023-03-06T06:34:28.450Z,2.39
2023-03-06T06:36:55.973Z,2.29
2023-03-06T06:39:24.629Z,2.21
2023-03-06T06:42:06.370Z,2.11
2023-03-06T06:44:39.937Z,2.05
2023-03-06T06:47:24.903Z,2.04
2023-03-06T06:49:55.231Z,2.04
2023-03-06T06:52:24.658Z,2.03
2023-03-06T06:54:52.833Z,2.03
2023-03-06T06:57:19.829Z,2.04
2023-03-06T06:59:46.834Z,2.06
2023-03-06T07:02:15.950Z,2.07
2023-03-06T07:05:00.650Z,2.08
2023-03-06T07:07:34.442Z,2.06
2023-03-06T07:10:01.596Z,2.08
2023-03-06T07:12:28.582Z,2.09
2023-03-06T07:14:55.619Z,2.13
2023-03-06T07:17:22.645Z,2.16
2023-03-06T07:19:50.195Z,2.19
2023-03-06T07:22:17.138Z,2.20
2023-03-06T07:24:45.342Z,2.27
2023-03-06T07:27:12.398Z,2.30
2023-03-06T07:29:39.658Z,2.35
2023-03-06T07:32:06.979Z,2.41
2023-03-06T07:34:34.032Z,2.48
2023-03-06T07:37:01.126Z,2.54
2023-03-06T07:39:30.052Z,2.58
2023-03-06T07:41:58.578Z,2.65
2023-03-06T07:44:25.634Z,2.71
2023-03-06T07:46:52.726Z,2.74
2023-03-06T07:49:19.792Z,2.77
2023-03-06T07:51:46.853Z,2.82
2023-03-06T07:54:13.816Z,2.82
2023-03-06T07:56:40.887Z,2.80
2023-03-06T07:59:07.889Z,2.80
2023-03-06T08:01:36.447Z,2.82
2023-03-06T08:04:03.709Z,2.91
2023-03-06T08:06:32.403Z,2.92
2023-03-06T08:08:59.810Z,2.97
2023-03-06T08:11:30.037Z,3.03
2023-03-06T08:13:58.450Z,3.09
2023-03-06T08:16:29.908Z,3.09
2023-03-06T08:18:58.166Z,3.15
2023-03-06T08:21:28.192Z,3.22
2023-03-06T08:23:56.148Z,3.32
2023-03-06T08:26:27.245Z,3.48
2023-03-06T08:28:57.529Z,3.53
2023-03-06T08:31:35.120Z,3.60
2023-03-06T08:34:07.429Z,3.65
2023-03-06T08:36:34.631Z,3.78
2023-03-06T08:39:01.811Z,3.96
2023-03-06T08:41:28.982Z,4.11
2023-03-06T08:43:56.861Z,4.20
2023-03-06T08:46:27.231Z,4.28
2023-03-06T08:48:54.479Z,4.31
2023-03-06T08:51:22.563Z,4.42
2023-03-06T08:53:51.245Z,4.47
2023-03-06T08:56:29.537Z,4.59
2023-03-06T08:58:59.759Z,4.66
2023-03-06T09:01:31.847Z,4.72
2023-03-06T09:04:02.656Z,4.74
2023-03-06T09:06:34.808Z,4.80
2023-03-06T09:09:02.805Z,4.91
2023-03-06T09:11:30.692Z,4.95
2023-03-06T09:13:58.479Z,5.05
2023-03-06T09:16:25.958Z,5.07
2023-03-06T09:18:54.041Z,5.15
2023-03-06T09:21:23.178Z,5.27
2023-03-06T09:23:50.755Z,5.32
2023-03-06T09:26:18.660Z,5.34
2023-03-06T09:28:46.735Z,5.31
2023-03-06T09:31:19.611Z,5.28
2023-03-06T09:33:48.590Z,5.27
2023-03-06T09:36:24.804Z,5.34
2023-03-06T09:38:51.792Z,5.41
2023-03-06T09:41:30.412Z,5.60
2023-03-06T09:44:06.074Z,5.78
2023-03-06T09:47:19.632Z,5.90
2023-03-06T09:50:10.328Z,6.09
2023-03-06T09:52:52.501Z,6.27
2023-03-06T09:55:27.066Z,6.40
2023-03-06T09:58:11.091Z,6.43
2023-03-06T10:01:12.815Z,6.41
2023-03-06T10:03:45.447Z,6.29
2023-03-06T10:06:25.105Z,6.16
2023-03-06T10:09:13.298Z,6.11
2023-03-06T10:12:02.107Z,6.02
2023-03-06T10:14:47.730Z,5.97
2023-03-06T10:17:23.751Z,6.01
2023-03-06T10:19:51.490Z,6.18
2023-03-06T10:22:33.004Z,6.34
2023-03-06T10:25:27.878Z,6.31
2023-03-06T10:28:29.447Z,6.38
2023-03-06T10:31:05.564Z,6.45
2023-03-06T10:33:49.709Z,6.61
2023-03-06T10:36:19.732Z,6.73
2023-03-06T10:38:48.682Z,6.86
2023-03-06T10:41:31.964Z,7.07
2023-03-06T10:44:05.036Z,7.21
2023-03-06T10:46:40.015Z,7.33
2023-03-06T10:49:36.815Z,7.53
2023-03-06T10:52:08.993Z,7.55
2023-03-06T10:54:40.703Z,7.39
2023-03-06T10:57:31.833Z,7.17
2023-03-06T11:00:23.056Z,6.99
2023-03-06T11:03:13.339Z,6.92
2023-03-06T11:05:40.731Z,7.03
2023-03-06T11:08:22.537Z,7.11
2023-03-06T11:11:06.972Z,7.16
2023-03-06T11:13:38.360Z,7.29
2023-03-06T11:16:38.983Z,7.42
2023-03-06T11:19:28.004Z,7.54
2023-03-06T11:22:06.365Z,7.67
2023-03-06T11:24:44.204Z,7.79
2023-03-06T11:27:34.372Z,7.83
2023-03-06T11:30:23.762Z,7.75
2023-03-06T11:33:04.999Z,7.64
2023-03-06T11:35:50.377Z,7.56
2023-03-06T11:38:33.778Z,7.65
2023-03-06T11:41:13.836Z,7.73
2023-03-06T11:43:59.136Z,7.84
2023-03-06T11:46:45.430Z,7.98
2023-03-06T11:49:18.227Z,7.97
2023-03-06T11:51:55.954Z,7.82
2023-03-06T11:54:23.485Z,7.70
2023-03-06T11:57:04.243Z,7.63
2023-03-06T11:59:59.377Z,7.69
2023-03-06T12:03:00.068Z,7.73
2023-03-06T12:05:37.982Z,7.70
2023-03-06T12:08:28.925Z,7.67
2023-03-06T12:16:33.228Z,8.09
2023-03-06T12:19:44.583Z,8.08
2023-03-06T12:22:25.726Z,8.31
2023-03-06T12:25:25.633Z,8.66
2023-03-06T12:28:00.250Z,8.89
2023-03-06T12:30:57.934Z,9.16
2023-03-06T12:33:27.778Z,9.41
2023-03-06T12:36:19.530Z,9.59
2023-03-06T12:39:29.964Z,9.72
2023-03-06T12:42:23.167Z,9.79
2023-03-06T12:45:01.406Z,9.89
2023-03-06T12:47:33.602Z,9.95
2023-03-06T12:50:13.493Z,10.12
2023-03-06T12:52:42.127Z,10.11
2023-03-06T12:55:17.453Z,10.20
2023-03-06T12:57:48.076Z,10.30
2023-03-06T13:00:36.259Z,10.27
2023-03-06T13:03:20.101Z,10.20
2023-03-06T13:06:01.005Z,10.05
2023-03-06T13:08:52.856Z,10.04
2023-03-06T13:12:26.277Z,10.03
2023-03-06T13:15:00.832Z,9.95
2023-03-06T13:17:38.304Z,9.87
2023-03-06T13:20:29.363Z,9.80
2023-03-06T13:22:56.664Z,9.62
2023-03-06T13:25:35.731Z,9.60
2023-03-06T13:28:04.743Z,9.58
2023-03-06T13:30:45.659Z,9.46
2023-03-06T13:33:27.626Z,9.28
2023-03-06T13:36:24.193Z,9.17
2023-03-06T13:38:51.711Z,9.29
2023-03-06T13:41:26.793Z,9.40
2023-03-06T13:43:57.432Z,9.43
2023-03-06T13:46:35.272Z,9.45
2023-03-06T13:49:08.012Z,9.45
2023-03-06T13:52:18.172Z,9.44
2023-03-06T13:55:37.985Z,9.42
2023-03-06T13:58:22.828Z,9.43
2023-03-06T14:01:04.316Z,9.42
2023-03-06T14:04:04.940Z,9.39
2023-03-06T14:06:34.885Z,9.38
2023-03-06T14:09:13.745Z,9.32
2023-03-06T14:11:51.588Z,9.29
2023-03-06T14:14:31.913Z,9.31
2023-03-06T14:17:00.383Z,9.31
2023-03-06T14:19:36.294Z,9.30
2023-03-06T14:22:05.797Z,9.25
2023-03-06T14:24:50.726Z,9.15
2023-03-06T14:27:19.191Z,9.01
2023-03-06T14:29:48.655Z,8.79
2023-03-06T14:32:22.544Z,8.54
2023-03-06T14:34:49.633Z,8.31
2023-03-06T14:37:24.588Z,8.07
2023-03-06T14:39:52.383Z,7.84
2023-03-06T14:42:28.538Z,7.67
2023-03-06T14:45:18.913Z,7.58
2023-03-06T14:47:53.352Z,7.50
2023-03-06T14:50:23.604Z,7.53
2023-03-06T14:53:19.020Z,7.65
2023-03-06T14:55:58.189Z,7.85
2023-03-06T14:58:36.467Z,8.01
2023-03-06T15:01:10.805Z,8.04
2023-03-06T15:03:56.900Z,8.11
2023-03-06T15:06:31.421Z,8.19
2023-03-06T15:09:07.968Z,8.17
2023-03-06T15:12:17.074Z,8.14
2023-03-06T15:14:57.571Z,8.08
2023-03-06T15:17:47.827Z,8.07
2023-03-06T15:20:53.362Z,8.04
2023-03-06T15:23:42.160Z,7.89
2023-03-06T15:26:36.993Z,7.84
2023-03-06T15:29:10.619Z,7.78
2023-03-06T15:31:43.624Z,7.77
2023-03-06T15:34:10.548Z,7.71
2023-03-06T15:36:51.476Z,7.66
2023-03-06T15:39:34.651Z,7.63
2023-03-06T15:42:24.977Z,7.62
2023-03-06T15:45:05.440Z,7.59
2023-03-06T15:47:35.268Z,7.58
2023-03-06T15:50:02.190Z,7.57
2023-03-06T15:52:30.008Z,7.46
2023-03-06T15:54:56.965Z,7.41
2023-03-06T15:57:32.878Z,7.37
2023-03-06T16:00:02.539Z,7.30
2023-03-06T16:02:38.383Z,7.22
2023-03-06T16:05:16.267Z,7.09
2023-03-06T16:07:44.494Z,6.95
2023-03-06T16:10:21.788Z,6.83
2023-03-06T16:12:54.402Z,6.71
2023-03-06T16:15:28.885Z,6.57
2023-03-06T16:17:56.935Z,6.34
2023-03-06T16:20:27.353Z,6.14
2023-03-06T16:22:56.664Z,5.99
2023-03-06T16:25:28.108Z,5.93
2023-03-06T16:27:58.248Z,5.85
2023-03-06T16:30:29.594Z,5.83
2023-03-06T16:32:58.054Z,5.83
2023-03-06T16:35:25.369Z,5.82
2023-03-06T16:37:52.363Z,5.81
2023-03-06T16:40:38.351Z,5.78
2023-03-06T16:43:05.529Z,5.73
2023-03-06T16:45:38.476Z,5.72
2023-03-06T16:48:06.977Z,5.68
2023-03-06T16:50:40.830Z,5.65
2023-03-06T16:53:08.281Z,5.61
2023-03-06T16:55:35.414Z,5.59
2023-03-06T16:58:02.550Z,5.60
2023-03-06T17:00:31.939Z,5.59
2023-03-06T17:03:01.120Z,5.58
2023-03-06T17:05:29.209Z,5.53
2023-03-06T17:07:56.513Z,5.51
2023-03-06T17:10:26.252Z,5.47
2023-03-06T17:12:55.539Z,5.46
2023-03-06T17:15:23.170Z,5.46
2023-03-06T17:17:51.616Z,5.41
2023-03-06T17:20:20.100Z,5.40
2023-03-06T17:22:47.185Z,5.39
2023-03-06T17:25:14.326Z,5.39
2023-03-06T17:27:41.303Z,5.37
2023-03-06T17:30:10.491Z,5.35
2023-03-06T17:32:40.858Z,5.33
2023-03-06T17:35:09.730Z,5.29
2023-03-06T17:37:38.955Z,5.24
2023-03-06T17:40:12.426Z,5.20
2023-03-06T17:42:39.367Z,5.20
2023-03-06T17:45:11.522Z,5.22
2023-03-06T17:47:38.434Z,5.24
2023-03-06T17:50:05.806Z,5.26
2023-03-06T17:52:33.357Z,5.27
2023-03-06T17:55:00.473Z,5.29
2023-03-06T17:57:27.418Z,5.29
2023-03-06T17:59:54.400Z,5.28
2023-03-06T18:02:21.449Z,5.31
2023-03-06T18:04:48.563Z,5.32
2023-03-06T18:07:15.648Z,5.32
2023-03-06T18:09:43.216Z,5.33
2023-03-06T18:12:10.468Z,5.33
2023-03-06T18:14:37.654Z,5.32
2023-03-06T18:17:04.662Z,5.27
2023-03-06T18:19:31.893Z,5.21
2023-03-06T18:21:59.072Z,5.16
2023-03-06T18:24:26.171Z,5.11
2023-03-06T18:26:53.286Z,5.08
2023-03-06T18:29:20.498Z,5.05
2023-03-06T18:31:49.965Z,5.00
2023-03-06T18:34:18.060Z,4.91
2023-03-06T18:36:47.273Z,4.88
2023-03-06T18:39:14.867Z,4.85
2023-03-06T18:41:41.965Z,4.79
2023-03-06T18:44:08.927Z,4.80
2023-03-06T18:46:38.184Z,4.78
2023-03-06T18:49:05.639Z,4.77
2023-03-06T18:51:33.232Z,4.78
2023-03-06T18:54:02.256Z,4.78
2023-03-06T18:56:29.725Z,4.77
2023-03-06T18:59:04.784Z,4.78
2023-03-06T19:01:32.619Z,4.78
2023-03-06T19:04:02.240Z,4.76
2023-03-06T19:06:29.918Z,4.74
2023-03-06T19:08:58.785Z,4.70
2023-03-06T19:11:27.295Z,4.66
2023-03-06T19:13:54.748Z,4.63
2023-03-06T19:16:26.324Z,4.64
2023-03-06T19:18:55.649Z,4.64
2023-03-06T19:21:25.838Z,4.63
2023-03-06T19:23:53.212Z,4.63
2023-03-06T19:26:20.881Z,4.65
2023-03-06T19:28:48.918Z,4.63
2023-03-06T19:31:25.037Z,4.63
2023-03-06T19:33:53.868Z,4.62
2023-03-06T19:36:26.586Z,4.60
2023-03-06T19:38:59.162Z,4.57
2023-03-06T19:41:27.717Z,4.54
2023-03-06T19:43:58.869Z,4.54
2023-03-06T19:46:27.083Z,4.54
2023-03-06T19:49:05.631Z,4.55
2023-03-06T19:51:32.595Z,4.54
2023-03-06T19:53:59.591Z,4.56
2023-03-06T19:56:29.031Z,4.57
2023-03-06T19:58:56.882Z,4.58
2023-03-06T20:01:27.409Z,4.58
2023-03-06T20:03:59.637Z,4.59
2023-03-06T20:06:31.385Z,4.60
2023-03-06T20:08:58.572Z,4.57
2023-03-06T20:11:29.976Z,4.55
2023-03-06T20:14:03.147Z,4.54
2023-03-06T20:16:31.913Z,4.52
2023-03-06T20:19:01.262Z,4.49
2023-03-06T20:21:31.747Z,4.46
2023-03-06T20:23:59.409Z,4.47
2023-03-06T20:26:28.543Z,4.46
2023-03-06T20:28:57.206Z,4.46
2023-03-06T20:31:28.106Z,4.43
2023-03-06T20:33:58.609Z,4.43
2023-03-06T20:36:32.933Z,4.41
2023-03-06T20:39:01.428Z,4.38
2023-03-06T20:41:30.597Z,4.37
2023-03-06T20:44:00.527Z,4.34
2023-03-06T20:46:28.257Z,4.29
2023-03-06T20:48:56.052Z,4.28
2023-03-06T20:51:30.146Z,4.25
2023-03-06T20:53:59.129Z,4.20
2023-03-06T20:56:31.219Z,4.19
2023-03-06T20:58:58.774Z,4.18
2023-03-06T21:01:32.720Z,4.19
2023-03-06T21:04:01.482Z,4.16
2023-03-06T21:06:29.361Z,4.14
2023-03-06T21:08:58.325Z,4.13
2023-03-06T21:11:26.186Z,4.12
2023-03-06T21:13:54.124Z,4.09
2023-03-06T21:16:24.642Z,4.05
2023-03-06T21:18:55.007Z,4.04
2023-03-06T21:21:29.582Z,4.02
2023-03-06T21:23:57.614Z,4.01
2023-03-06T21:26:28.555Z,3.98
2023-03-06T21:28:58.977Z,3.97
2023-03-06T21:31:28.216Z,3.95
2023-03-06T21:33:56.883Z,3.96
2023-03-06T21:36:24.366Z,3.95
2023-03-06T21:38:53.479Z,3.96
2023-03-06T21:41:30.330Z,3.96
2023-03-06T21:44:01.506Z,3.99
2023-03-06T21:46:28.999Z,3.98
2023-03-06T21:49:00.163Z,4.02
2023-03-06T21:51:27.408Z,4.03
2023-03-06T21:53:55.467Z,4.02
2023-03-06T21:56:25.701Z,4.04
2023-03-06T21:58:53.001Z,4.04
2023-03-06T22:01:24.875Z,4.04
2023-03-06T22:03:52.459Z,4.04
2023-03-06T22:06:26.684Z,4.07
2023-03-06T22:08:56.466Z,4.07
2023-03-06T22:11:25.383Z,4.10
2023-03-06T22:13:55.724Z,4.11
2023-03-06T22:16:22.877Z,4.14
2023-03-06T22:18:51.899Z,4.18
2023-03-06T22:21:21.801Z,4.20
2023-03-06T22:23:57.379Z,4.24
2023-03-06T22:26:29.442Z,4.26
2023-03-06T22:28:57.418Z,4.25
2023-03-06T22:31:28.444Z,4.26
2023-03-06T22:33:59.036Z,4.26
2023-03-06T22:36:28.487Z,4.30
2023-03-06T22:38:58.588Z,4.30
2023-03-06T22:41:26.858Z,4.32
2023-03-06T22:43:59.511Z,4.35
2023-03-06T22:46:27.613Z,4.34
2023-03-06T22:49:00.324Z,4.35
2023-03-06T22:51:29.557Z,4.37
2023-03-06T22:53:56.726Z,4.35
2023-03-06T22:56:24.006Z,4.38
2023-03-06T22:58:51.387Z,4.39
2023-03-06T23:01:22.614Z,4.42
2023-03-06T23:03:52.927Z,4.45
2023-03-06T23:06:46.972Z,4.47
2023-03-06T23:09:22.700Z,4.47
2023-03-06T23:12:09.191Z,4.47
2023-03-06T23:14:54.606Z,4.47
2023-03-06T23:17:40.104Z,4.49
2023-03-06T23:20:25.711Z,4.51
2023-03-06T23:23:11.984Z,4.52
2023-03-06T23:25:42.441Z,4.52
2023-03-06T23:28:09.546Z,4.56
2023-03-06T23:30:39.192Z,4.57
2023-03-06T23:33:06.521Z,4.56
2023-03-06T23:35:35.911Z,4.57
2023-03-06T23:38:02.889Z,4.58
2023-03-06T23:40:33.100Z,4.58
2023-03-06T23:43:00.483Z,4.58
2023-03-06T23:45:27.517Z,4.60
2023-03-06T23:47:54.547Z,4.59
2023-03-06T23:50:23.090Z,4.60
2023-03-06T23:52:55.005Z,4.62
2023-03-06T23:55:22.016Z,4.58
2023-03-06T23:57:48.987Z,4.57
